Time;durP1;ratioP1;P1;durP2;ratioP2;P2;SDS_P1;SDS_P2;PMS_P1;PMS_P2;Temp;Humidity;BMP_temperature;BMP_pressure;BME280_temperature;BME280_humidity;BME280_pressure;Samples;Min_cycle;Max_cycle;Signal;HPM_P1;HPM_P2
2021/07/09 00:04:07;;;;;;;9.48;7.82;;;;;;;;;;10439262;28;20049;-23
2021/07/09 00:09:10;;;;;;;10.57;7.88;;;;;;;;;;10442321;28;20052;-23
2021/07/09 00:14:15;;;;;;;10.57;8.13;;;;;;;;;;10440310;28;20036;-23
2021/07/09 00:19:18;;;;;;;10.02;7.55;;;;;;;;;;10441569;28;20512;-23
2021/07/09 00:24:22;;;;;;;10.82;8.20;;;;;;;;;;10433493;28;20087;-23
2021/07/09 00:29:25;;;;;;;9.77;8.30;;;;;;;;;;10433440;28;20406;-23
2021/07/09 00:34:29;;;;;;;12.10;8.02;;;;;;;;;;10440761;28;20072;-23
2021/07/09 00:39:32;;;;;;;10.80;9.25;;;;;;;;;;10438005;28;20048;-23
2021/07/09 00:44:34;;;;;;;13.20;10.05;;;;;;;;;;10440652;28;20029;-23
2021/07/09 00:49:39;;;;;;;12.30;10.32;;;;;;;;;;10436818;28;20394;-23
2021/07/09 00:54:42;;;;;;;15.88;11.77;;;;;;;;;;10432109;28;20033;-23
2021/07/09 00:59:45;;;;;;;15.68;12.15;;;;;;;;;;10432861;28;20057;-22
2021/07/09 01:04:49;;;;;;;16.30;13.90;;;;;;;;;;10435829;28;20045;-23
2021/07/09 01:09:51;;;;;;;16.00;13.05;;;;;;;;;;10435722;28;20045;-22
2021/07/09 01:14:54;;;;;;;17.55;14.13;;;;;;;;;;10438520;28;20043;-23
2021/07/09 01:19:58;;;;;;;19.63;15.38;;;;;;;;;;10439280;28;20467;-23
2021/07/09 01:25:03;;;;;;;21.48;17.05;;;;;;;;;;10438078;28;20037;-23
2021/07/09 01:30:08;;;;;;;25.13;17.02;;;;;;;;;;10432735;28;20058;-23
2021/07/09 01:35:11;;;;;;;24.65;18.00;;;;;;;;;;10427864;28;20048;-23
2021/07/09 01:40:16;;;;;;;24.60;18.42;;;;;;;;;;10434083;28;20045;-24
2021/07/09 01:45:18;;;;;;;25.58;20.25;;;;;;;;;;10433732;28;20107;-23
2021/07/09 01:50:22;;;;;;;24.08;17.13;;;;;;;;;;10440363;28;20524;-23
2021/07/09 01:55:26;;;;;;;21.90;17.42;;;;;;;;;;10433599;28;20096;-24
2021/07/09 02:00:29;;;;;;;24.13;19.00;;;;;;;;;;10439947;28;20045;-26
2021/07/09 02:05:32;;;;;;;24.38;19.08;;;;;;;;;;10430241;28;20045;-24
2021/07/09 02:10:38;;;;;;;26.00;18.48;;;;;;;;;;10438051;28;20055;-23
2021/07/09 02:15:42;;;;;;;26.35;18.42;;;;;;;;;;10437799;28;20048;-23
2021/07/09 02:20:45;;;;;;;28.73;17.63;;;;;;;;;;10438098;28;20441;-23
2021/07/09 02:25:49;;;;;;;24.05;17.45;;;;;;;;;;10435723;28;20041;-24
2021/07/09 02:30:51;;;;;;;21.58;15.80;;;;;;;;;;10432268;28;20052;-24
2021/07/09 02:35:54;;;;;;;17.17;14.15;;;;;;;;;;10425789;28;20048;-23
2021/07/09 02:40:58;;;;;;;21.85;15.75;;;;;;;;;;10433517;28;20048;-24
2021/07/09 02:46:01;;;;;;;18.52;14.07;;;;;;;;;;10428225;28;20032;-25
2021/07/09 02:51:08;;;;;;;19.83;13.20;;;;;;;;;;10432888;28;20064;-25
2021/07/09 02:56:12;;;;;;;16.58;12.60;;;;;;;;;;10432202;28;20045;-25
2021/07/09 03:01:15;;;;;;;14.65;11.65;;;;;;;;;;10431372;28;20053;-26
2021/07/09 03:06:18;;;;;;;13.95;10.57;;;;;;;;;;10432659;28;20045;-24
2021/07/09 03:11:23;;;;;;;15.20;10.95;;;;;;;;;;10429304;28;20045;-24
2021/07/09 03:16:26;;;;;;;16.48;11.02;;;;;;;;;;10429339;28;20124;-24
2021/07/09 03:21:29;;;;;;;12.88;9.73;;;;;;;;;;10432115;28;20491;-24
2021/07/09 03:26:34;;;;;;;12.93;9.55;;;;;;;;;;10429233;28;20501;-25
2021/07/09 03:31:37;;;;;;;13.40;10.35;;;;;;;;;;10431756;28;20053;-23
2021/07/09 03:36:43;;;;;;;17.27;11.32;;;;;;;;;;10431842;28;20045;-24
2021/07/09 03:41:52;;;;;;;13.90;11.55;;;;;;;;;;10421192;28;20037;-24
2021/07/09 03:46:55;;;;;;;17.08;13.18;;;;;;;;;;10427859;28;20045;-24
2021/07/09 03:51:58;;;;;;;15.65;12.80;;;;;;;;;;10430771;28;20044;-24
2021/07/09 03:57:04;;;;;;;15.57;11.27;;;;;;;;;;10432699;28;20048;-23
2021/07/09 04:02:07;;;;;;;15.60;11.55;;;;;;;;;;10431301;28;20048;-24
2021/07/09 04:07:10;;;;;;;14.52;11.20;;;;;;;;;;10432632;28;20095;-24
2021/07/09 04:12:14;;;;;;;14.02;11.35;;;;;;;;;;10431399;28;20041;-23
2021/07/09 04:17:18;;;;;;;17.05;12.02;;;;;;;;;;10429003;28;20040;-25
2021/07/09 04:22:21;;;;;;;16.27;11.75;;;;;;;;;;10353504;28;20077;-24
2021/07/09 04:27:25;;;;;;;16.55;12.35;;;;;;;;;;10348623;28;20041;-24
2021/07/09 04:32:28;;;;;;;19.90;14.18;;;;;;;;;;10357877;28;20049;-24
2021/07/09 04:37:31;;;;;;;19.23;14.95;;;;;;;;;;10348049;28;20038;-24
2021/07/09 04:42:35;;;;;;;17.50;13.70;;;;;;;;;;10350035;28;20045;-23
2021/07/09 04:47:38;;;;;;;22.90;17.63;;;;;;;;;;10352317;28;20036;-24
2021/07/09 04:52:41;;;;;;;22.73;17.15;;;;;;;;;;10356497;28;20053;-23
2021/07/09 04:57:46;;;;;;;21.52;16.08;;;;;;;;;;10355236;28;20033;-24
2021/07/09 05:02:48;;;;;;;21.45;16.02;;;;;;;;;;10356365;28;20109;-24
2021/07/09 05:07:51;;;;;;;25.10;17.17;;;;;;;;;;10353388;28;20479;-26
2021/07/09 05:12:55;;;;;;;29.58;19.33;;;;;;;;;;10354093;28;20041;-25
2021/07/09 05:17:58;;;;;;;29.13;20.58;;;;;;;;;;10353443;28;20046;-25
2021/07/09 05:23:00;;;;;;;29.25;20.73;;;;;;;;;;10357820;28;20033;-25
2021/07/09 05:28:06;;;;;;;29.55;20.13;;;;;;;;;;10352055;28;20046;-24
2021/07/09 05:33:10;;;;;;;27.65;19.88;;;;;;;;;;10350023;28;20058;-24
2021/07/09 05:38:13;;;;;;;30.23;20.13;;;;;;;;;;10349468;28;20046;-25
2021/07/09 05:43:19;;;;;;;27.38;19.58;;;;;;;;;;10354952;28;20109;-24
2021/07/09 05:48:21;;;;;;;28.08;20.27;;;;;;;;;;10355374;28;20491;-25
2021/07/09 05:53:24;;;;;;;25.02;18.65;;;;;;;;;;10353422;28;20120;-25
2021/07/09 05:58:28;;;;;;;25.48;18.58;;;;;;;;;;10353164;28;20045;-24
2021/07/09 06:03:31;;;;;;;23.45;17.70;;;;;;;;;;10355870;28;20041;-25
2021/07/09 06:08:34;;;;;;;25.50;17.63;;;;;;;;;;10349680;28;20061;-25
2021/07/09 06:13:38;;;;;;;23.38;16.50;;;;;;;;;;10351829;28;20048;-25
2021/07/09 06:18:40;;;;;;;24.80;17.95;;;;;;;;;;10350630;28;20052;-24
2021/07/09 06:23:57;;;;;;;22.08;15.27;;;;;;;;;;10351299;28;20592;-27
2021/07/09 06:29:01;;;;;;;24.77;16.65;;;;;;;;;;10353945;28;20054;-25
2021/07/09 06:34:03;;;;;;;22.50;16.33;;;;;;;;;;10353466;28;20077;-25
2021/07/09 06:39:06;;;;;;;25.02;18.23;;;;;;;;;;10351463;28;20042;-25
2021/07/09 06:44:10;;;;;;;25.17;17.77;;;;;;;;;;10347902;28;20046;-24
2021/07/09 06:49:15;;;;;;;22.98;17.58;;;;;;;;;;10347722;28;20046;-24
2021/07/09 06:54:17;;;;;;;21.42;15.20;;;;;;;;;;10345442;28;20385;-24
2021/07/09 06:59:21;;;;;;;19.90;15.13;;;;;;;;;;10352158;28;20435;-24
2021/07/09 07:04:25;;;;;;;19.98;15.10;;;;;;;;;;10351423;28;20064;-24
2021/07/09 07:09:27;;;;;;;17.00;13.63;;;;;;;;;;10349038;28;20041;-23
2021/07/09 07:14:32;;;;;;;16.55;13.57;;;;;;;;;;10347545;28;20507;-23
2021/07/09 07:19:35;;;;;;;14.43;11.30;;;;;;;;;;10344177;28;20048;-23
2021/07/09 07:24:37;;;;;;;13.23;10.75;;;;;;;;;;10346852;28;20033;-24
2021/07/09 07:29:41;;;;;;;13.90;9.77;;;;;;;;;;10348121;28;20050;-24
2021/07/09 07:34:44;;;;;;;11.18;8.82;;;;;;;;;;10350783;28;20388;-23
2021/07/09 07:39:47;;;;;;;12.23;8.20;;;;;;;;;;10352506;28;20062;-23
2021/07/09 07:44:51;;;;;;;9.35;7.38;;;;;;;;;;10352054;28;20045;-23
2021/07/09 07:49:54;;;;;;;10.30;7.32;;;;;;;;;;10352088;28;20467;-23
2021/07/09 07:54:57;;;;;;;10.73;6.75;;;;;;;;;;10347156;28;20542;-22
2021/07/09 08:00:01;;;;;;;8.55;6.30;;;;;;;;;;10349866;28;20056;-22
2021/07/09 08:05:14;;;;;;;8.35;6.22;;;;;;;;;;10351407;28;20058;-22
2021/07/09 08:10:17;;;;;;;8.43;6.15;;;;;;;;;;10348050;28;20038;-23
2021/07/09 08:15:21;;;;;;;8.02;6.10;;;;;;;;;;10350804;28;20057;-22
2021/07/09 08:20:23;;;;;;;8.23;6.20;;;;;;;;;;10354137;28;20842;-23
2021/07/09 08:25:26;;;;;;;7.88;6.18;;;;;;;;;;10356087;28;20050;-23
2021/07/09 08:30:30;;;;;;;7.82;5.70;;;;;;;;;;10355594;28;20062;-22
2021/07/09 08:35:33;;;;;;;8.77;5.57;;;;;;;;;;10358805;28;20865;-22
2021/07/09 08:40:36;;;;;;;9.82;6.30;;;;;;;;;;10358992;28;20050;-21
2021/07/09 08:45:55;;;;;;;9.30;6.40;;;;;;;;;;10353591;28;20130;-22
2021/07/09 08:50:59;;;;;;;7.70;6.05;;;;;;;;;;10358195;28;20046;-22
2021/07/09 08:56:02;;;;;;;9.15;6.88;;;;;;;;;;10355491;28;20041;-22
2021/07/09 09:01:07;;;;;;;7.95;6.35;;;;;;;;;;10356180;28;20050;-23
2021/07/09 09:06:12;;;;;;;8.77;6.22;;;;;;;;;;10347773;28;20058;-22
2021/07/09 09:11:14;;;;;;;8.00;5.75;;;;;;;;;;10357438;28;20042;-22
2021/07/09 09:16:19;;;;;;;10.98;7.25;;;;;;;;;;10358474;28;20041;-22
2021/07/09 09:21:22;;;;;;;10.60;7.32;;;;;;;;;;10357952;28;20057;-22
2021/07/09 09:26:45;;;;;;;11.77;8.18;;;;;;;;;;10356452;28;20050;-20
2021/07/09 09:31:51;;;;;;;10.88;7.40;;;;;;;;;;10353809;28;20145;-21
2021/07/09 09:37:00;;;;;;;10.77;7.38;;;;;;;;;;10325113;28;20081;-21
2021/07/09 09:42:17;;;;;;;12.60;7.22;;;;;;;;;;10353690;28;20044;-21
2021/07/09 09:47:22;;;;;;;9.30;6.50;;;;;;;;;;10358816;28;20410;-21
2021/07/09 09:52:35;;;;;;;10.25;6.90;;;;;;;;;;10360316;28;20461;-21
2021/07/09 09:57:38;;;;;;;9.35;5.78;;;;;;;;;;10352654;28;20368;-21
2021/07/09 10:02:44;;;;;;;9.35;6.43;;;;;;;;;;10354813;28;20804;-22
2021/07/09 10:07:47;;;;;;;12.90;8.68;;;;;;;;;;10351862;28;20394;-20
2021/07/09 10:12:51;;;;;;;16.48;9.40;;;;;;;;;;10357833;28;20053;-22
2021/07/09 10:17:55;;;;;;;11.10;7.65;;;;;;;;;;10355633;28;20165;-22
2021/07/09 10:23:00;;;;;;;11.13;7.72;;;;;;;;;;10358337;28;20046;-22
2021/07/09 10:28:05;;;;;;;9.52;6.72;;;;;;;;;;10352435;28;20058;-23
2021/07/09 10:33:28;;;;;;;10.43;7.18;;;;;;;;;;10354723;28;20044;-23
2021/07/09 10:38:35;;;;;;;12.52;7.88;;;;;;;;;;10354100;28;20066;-24
2021/07/09 10:43:38;;;;;;;14.35;5.72;;;;;;;;;;10348546;28;20112;-27
2021/07/09 10:48:42;;;;;;;7.30;3.70;;;;;;;;;;10350975;28;20042;-22
2021/07/09 10:53:45;;;;;;;5.20;3.20;;;;;;;;;;10357494;28;20045;-22
2021/07/09 10:58:58;;;;;;;7.55;3.05;;;;;;;;;;10357035;28;20479;-22
2021/07/09 11:04:11;;;;;;;4.38;3.05;;;;;;;;;;10354732;28;20038;-22
2021/07/09 11:09:18;;;;;;;5.35;3.90;;;;;;;;;;10356115;28;20056;-22
2021/07/09 11:14:33;;;;;;;4.38;3.15;;;;;;;;;;10353256;28;20073;-22
2021/07/09 11:19:42;;;;;;;4.55;2.75;;;;;;;;;;10350343;28;20092;-22
2021/07/09 11:24:52;;;;;;;5.30;3.38;;;;;;;;;;10354447;28;20049;-20
2021/07/09 11:30:01;;;;;;;5.85;3.83;;;;;;;;;;10353025;28;20046;-20
2021/07/09 11:35:10;;;;;;;7.13;3.72;;;;;;;;;;10353832;28;20093;-20
2021/07/09 11:40:17;;;;;;;7.93;4.03;;;;;;;;;;10352579;28;20042;-20
2021/07/09 11:45:20;;;;;;;7.30;4.05;;;;;;;;;;10352771;28;20096;-21
2021/07/09 11:50:24;;;;;;;7.50;5.00;;;;;;;;;;10347833;28;20049;-20
2021/07/09 11:55:28;;;;;;;6.82;4.88;;;;;;;;;;10349000;28;20076;-20
2021/07/09 12:00:32;;;;;;;8.45;5.70;;;;;;;;;;10351655;28;20042;-21
2021/07/09 12:05:37;;;;;;;8.25;5.40;;;;;;;;;;10350130;28;20406;-20
2021/07/09 12:10:42;;;;;;;6.30;4.20;;;;;;;;;;10351609;28;20501;-20
2021/07/09 12:15:46;;;;;;;7.00;4.40;;;;;;;;;;10343253;28;20065;-21
2021/07/09 12:20:50;;;;;;;8.15;4.97;;;;;;;;;;10347437;28;20096;-21
2021/07/09 12:25:54;;;;;;;7.82;4.45;;;;;;;;;;10345311;28;20045;-22
2021/07/09 12:30:57;;;;;;;10.20;5.97;;;;;;;;;;10354517;28;20392;-21
2021/07/09 12:36:03;;;;;;;8.25;5.03;;;;;;;;;;10352459;28;20065;-21
2021/07/09 12:41:06;;;;;;;5.93;4.07;;;;;;;;;;10343092;28;20407;-23
2021/07/09 12:46:19;;;;;;;6.82;4.07;;;;;;;;;;10344543;28;20804;-23
2021/07/09 12:51:25;;;;;;;6.13;4.28;;;;;;;;;;10343286;28;20034;-23
2021/07/09 12:56:29;;;;;;;5.95;4.03;;;;;;;;;;10347376;28;20048;-23
2021/07/09 13:01:32;;;;;;;5.35;3.65;;;;;;;;;;10347531;28;20792;-22
2021/07/09 13:06:37;;;;;;;5.40;3.58;;;;;;;;;;10351209;28;20048;-22
2021/07/09 13:11:41;;;;;;;5.60;4.10;;;;;;;;;;10359865;28;20044;-23
2021/07/09 13:16:48;;;;;;;5.57;4.28;;;;;;;;;;10359674;28;20112;-22
2021/07/09 13:21:53;;;;;;;6.78;5.15;;;;;;;;;;10355422;28;20037;-23
2021/07/09 13:26:56;;;;;;;7.97;5.55;;;;;;;;;;10359397;28;20046;-23
2021/07/09 13:32:00;;;;;;;7.45;5.15;;;;;;;;;;10358995;28;20048;-23
2021/07/09 13:37:12;;;;;;;6.70;5.03;;;;;;;;;;10356544;28;20073;-23
2021/07/09 13:42:15;;;;;;;;;;;;;;;;;;10358335;28;20034;-22
2021/07/09 13:47:17;;;;;;;5.60;3.30;;;;;;;;;;10352449;28;20318;-24
2021/07/09 13:52:25;;;;;;;3.97;2.92;;;;;;;;;;10350191;28;20054;-23
2021/07/09 13:57:28;;;;;;;3.60;2.60;;;;;;;;;;10354994;28;20422;-23
2021/07/09 14:02:31;;;;;;;4.70;2.85;;;;;;;;;;10357309;28;20034;-23
2021/07/09 14:07:35;;;;;;;5.28;3.13;;;;;;;;;;10353315;28;20095;-23
2021/07/09 14:12:38;;;;;;;4.65;3.00;;;;;;;;;;10350273;28;20041;-23
2021/07/09 14:18:00;;;;;;;3.92;2.85;;;;;;;;;;10356113;28;20045;-24
2021/07/09 14:23:04;;;;;;;6.28;2.72;;;;;;;;;;10352304;28;20391;-23
2021/07/09 14:28:07;;;;;;;4.57;2.90;;;;;;;;;;10346799;28;20054;-24
2021/07/09 14:33:11;;;;;;;3.78;2.72;;;;;;;;;;10357718;28;20050;-23
2021/07/09 14:38:15;;;;;;;4.32;2.85;;;;;;;;;;10348849;28;20053;-23
2021/07/09 14:43:18;;;;;;;5.50;2.75;;;;;;;;;;10350932;28;20503;-23
2021/07/09 14:48:22;;;;;;;4.43;2.95;;;;;;;;;;10353371;28;20101;-23
2021/07/09 14:53:27;;;;;;;6.40;3.05;;;;;;;;;;10350285;28;20503;-22
2021/07/09 14:58:31;;;;;;;3.97;2.28;;;;;;;;;;10349993;28;20038;-23
2021/07/09 15:03:34;;;;;;;5.20;2.80;;;;;;;;;;10348599;28;20050;-23
2021/07/09 15:08:40;;;;;;;4.10;2.33;;;;;;;;;;10354164;28;20523;-23
2021/07/09 15:13:43;;;;;;;3.85;2.38;;;;;;;;;;10352778;28;20037;-24
2021/07/09 15:18:46;;;;;;;4.45;2.50;;;;;;;;;;10351284;28;20755;-23
2021/07/09 15:23:51;;;;;;;4.63;2.85;;;;;;;;;;10356596;28;20037;-24
2021/07/09 15:28:54;;;;;;;4.28;2.63;;;;;;;;;;10349040;28;20088;-25
2021/07/09 15:33:57;;;;;;;3.97;2.53;;;;;;;;;;10349887;28;20487;-23
2021/07/09 15:39:01;;;;;;;6.45;3.30;;;;;;;;;;10349736;28;20148;-26
2021/07/09 15:44:04;;;;;;;8.00;3.30;;;;;;;;;;10341791;28;20044;-23
2021/07/09 15:49:07;;;;;;;5.95;3.72;;;;;;;;;;10345606;28;20038;-23
2021/07/09 15:54:11;;;;;;;5.85;4.35;;;;;;;;;;10345907;28;20061;-24
2021/07/09 15:59:14;;;;;;;5.22;3.90;;;;;;;;;;10351147;28;20077;-24
2021/07/09 16:04:17;;;;;;;7.20;4.88;;;;;;;;;;10351772;28;20046;-25
2021/07/09 16:09:25;;;;;;;8.20;5.15;;;;;;;;;;10341390;28;20048;-25
2021/07/09 16:14:28;;;;;;;17.40;5.30;;;;;;;;;;10347881;28;20038;-24
2021/07/09 16:19:31;;;;;;;8.60;5.57;;;;;;;;;;10352115;28;20049;-24
2021/07/09 16:24:38;;;;;;;7.85;5.72;;;;;;;;;;10348842;28;20048;-24
2021/07/09 16:29:58;;;;;;;6.88;5.35;;;;;;;;;;10347997;28;20049;-25
2021/07/09 16:35:01;;;;;;;7.65;4.80;;;;;;;;;;10347660;28;20042;-26
2021/07/09 16:40:06;;;;;;;7.72;4.28;;;;;;;;;;10352672;28;20795;-24
2021/07/09 16:45:10;;;;;;;5.95;4.50;;;;;;;;;;10354341;28;20142;-25
2021/07/09 16:50:12;;;;;;;10.32;4.63;;;;;;;;;;10358335;28;20037;-25
2021/07/09 16:55:16;;;;;;;9.75;6.22;;;;;;;;;;10353492;28;20053;-24
2021/07/09 17:00:19;;;;;;;8.20;4.90;;;;;;;;;;10354120;28;20384;-25
2021/07/09 17:05:22;;;;;;;7.30;5.35;;;;;;;;;;10358359;28;20060;-26
2021/07/09 17:10:27;;;;;;;9.10;5.53;;;;;;;;;;10354347;28;20049;-25
2021/07/09 17:15:31;;;;;;;9.18;5.20;;;;;;;;;;10344421;28;20384;-30
2021/07/09 17:20:37;;;;;;;7.63;5.38;;;;;;;;;;10353370;28;20042;-30
2021/07/09 17:25:43;;;;;;;9.20;4.82;;;;;;;;;;10352009;28;20042;-31
2021/07/09 17:30:47;;;;;;;8.13;4.55;;;;;;;;;;10352851;28;20443;-30
2021/07/09 17:35:51;;;;;;;7.88;5.13;;;;;;;;;;10350677;28;20034;-30
2021/07/09 17:40:55;;;;;;;7.53;5.00;;;;;;;;;;10352638;28;20033;-30
2021/07/09 17:45:58;;;;;;;8.02;4.60;;;;;;;;;;10348974;28;20045;-31
2021/07/09 17:51:16;;;;;;;6.80;4.53;;;;;;;;;;10350957;28;20132;-28
2021/07/09 17:56:21;;;;;;;6.70;4.47;;;;;;;;;;10348660;28;20038;-31
2021/07/09 18:01:24;;;;;;;7.93;4.20;;;;;;;;;;10352033;28;20090;-32
2021/07/09 18:06:28;;;;;;;6.85;4.65;;;;;;;;;;10347373;28;20042;-31
2021/07/09 18:11:43;;;;;;;7.25;4.63;;;;;;;;;;10347603;28;20049;-30
2021/07/09 18:16:46;;;;;;;7.82;4.95;;;;;;;;;;10350876;28;20053;-33
2021/07/09 18:21:48;;;;;;;5.80;3.75;;;;;;;;;;10351421;28;20040;-31
2021/07/09 18:26:53;;;;;;;9.65;4.40;;;;;;;;;;10348157;28;20048;-30
2021/07/09 18:31:55;;;;;;;6.75;4.38;;;;;;;;;;10348192;28;20053;-31
2021/07/09 18:36:58;;;;;;;7.20;3.95;;;;;;;;;;10347991;28;20038;-31
2021/07/09 18:42:05;;;;;;;5.38;3.67;;;;;;;;;;10345752;28;20042;-31
2021/07/09 18:47:08;;;;;;;5.80;3.63;;;;;;;;;;10346865;28;20463;-32
2021/07/09 18:52:12;;;;;;;6.50;3.97;;;;;;;;;;10343026;28;20042;-32
2021/07/09 18:57:16;;;;;;;8.27;4.40;;;;;;;;;;10344193;28;20050;-29
2021/07/09 19:02:20;;;;;;;7.50;4.53;;;;;;;;;;10343759;28;20042;-30
2021/07/09 19:07:23;;;;;;;7.57;4.88;;;;;;;;;;10343820;28;20046;-30
2021/07/09 19:12:27;;;;;;;8.32;4.88;;;;;;;;;;10345440;28;20042;-30
2021/07/09 19:17:29;;;;;;;8.93;4.13;;;;;;;;;;10344419;28;20050;-31
2021/07/09 19:22:32;;;;;;;7.18;4.80;;;;;;;;;;10350449;28;20869;-30
2021/07/09 19:27:36;;;;;;;8.05;5.20;;;;;;;;;;10337477;28;20045;-30
2021/07/09 19:32:39;;;;;;;7.18;4.53;;;;;;;;;;10338252;28;20045;-30
2021/07/09 19:37:44;;;;;;;9.88;4.85;;;;;;;;;;10344822;28;20062;-30
2021/07/09 19:42:49;;;;;;;6.38;4.82;;;;;;;;;;10341165;28;20049;-30
2021/07/09 19:47:52;;;;;;;8.38;4.38;;;;;;;;;;10342017;28;20518;-30
2021/07/09 19:52:54;;;;;;;11.70;5.53;;;;;;;;;;10343658;28;20046;-30
2021/07/09 19:57:58;;;;;;;8.40;5.70;;;;;;;;;;10346580;28;20057;-30
2021/07/09 20:03:01;;;;;;;10.20;5.93;;;;;;;;;;10348042;28;20038;-30
2021/07/09 20:08:05;;;;;;;9.13;5.68;;;;;;;;;;10348926;28;20048;-30
2021/07/09 20:13:09;;;;;;;8.07;5.20;;;;;;;;;;10343278;28;20046;-31
2021/07/09 20:18:12;;;;;;;9.65;5.68;;;;;;;;;;10349663;28;20812;-31
2021/07/09 20:23:15;;;;;;;10.07;6.07;;;;;;;;;;10344241;28;20583;-31
2021/07/09 20:28:19;;;;;;;8.32;5.95;;;;;;;;;;10352338;28;20061;-33
2021/07/09 20:33:22;;;;;;;8.27;5.78;;;;;;;;;;10354932;28;20049;-30
2021/07/09 20:38:34;;;;;;;8.73;5.70;;;;;;;;;;10351836;28;20514;-30
2021/07/09 20:43:38;;;;;;;10.68;6.22;;;;;;;;;;10352421;28;20050;-30
2021/07/09 20:48:55;;;;;;;9.00;5.78;;;;;;;;;;10350447;28;20053;-33
2021/07/09 20:53:58;;;;;;;10.10;6.40;;;;;;;;;;10346866;28;20042;-31
2021/07/09 20:59:03;;;;;;;8.93;6.68;;;;;;;;;;10345400;28;20050;-31
2021/07/09 21:04:06;;;;;;;12.40;8.05;;;;;;;;;;10342825;28;20787;-30
2021/07/09 21:09:09;;;;;;;10.25;6.72;;;;;;;;;;10349568;28;20153;-31
2021/07/09 21:14:13;;;;;;;9.75;6.82;;;;;;;;;;10344480;28;20050;-31
2021/07/09 21:19:15;;;;;;;8.48;6.30;;;;;;;;;;10350498;28;20046;-30
2021/07/09 21:24:18;;;;;;;9.40;6.70;;;;;;;;;;10350502;28;20045;-31
2021/07/09 21:29:22;;;;;;;11.57;8.32;;;;;;;;;;10350739;28;20057;-30
2021/07/09 21:34:25;;;;;;;11.05;8.15;;;;;;;;;;10350946;28;20486;-31
2021/07/09 21:39:28;;;;;;;11.52;7.35;;;;;;;;;;10352061;28;20042;-30
2021/07/09 21:44:32;;;;;;;10.13;7.03;;;;;;;;;;10350262;28;20042;-31
2021/07/09 21:49:34;;;;;;;11.35;6.95;;;;;;;;;;10351265;28;20038;-31
2021/07/09 21:54:37;;;;;;;11.23;7.45;;;;;;;;;;10346725;28;20042;-30
2021/07/09 21:59:41;;;;;;;10.07;7.00;;;;;;;;;;10349044;28;20049;-30
2021/07/09 22:04:44;;;;;;;11.77;6.82;;;;;;;;;;10347669;28;20148;-30
2021/07/09 22:09:47;;;;;;;12.27;6.68;;;;;;;;;;10347091;28;20053;-31
2021/07/09 22:14:59;;;;;;;11.20;7.22;;;;;;;;;;10345631;28;20039;-31
2021/07/09 22:20:02;;;;;;;12.02;6.95;;;;;;;;;;10347278;28;20049;-31
2021/07/09 22:25:05;;;;;;;14.40;6.95;;;;;;;;;;10346126;28;20041;-30
2021/07/09 22:30:10;;;;;;;15.43;7.55;;;;;;;;;;10347976;28;20054;-32
2021/07/09 22:35:13;;;;;;;15.75;7.80;;;;;;;;;;10351431;28;20045;-30
2021/07/09 22:40:16;;;;;;;11.98;8.40;;;;;;;;;;10349329;28;20050;-32
2021/07/09 22:45:21;;;;;;;11.60;8.45;;;;;;;;;;10350939;28;20033;-31
2021/07/09 22:50:23;;;;;;;11.50;8.35;;;;;;;;;;10353066;28;20048;-30
2021/07/09 22:55:26;;;;;;;14.63;8.60;;;;;;;;;;10347537;28;20030;-32
2021/07/09 23:00:30;;;;;;;12.20;7.88;;;;;;;;;;10337993;28;20049;-31
2021/07/09 23:05:33;;;;;;;11.38;7.32;;;;;;;;;;10343476;28;20042;-34
2021/07/09 23:10:35;;;;;;;12.13;8.23;;;;;;;;;;10345327;28;20042;-30
2021/07/09 23:15:39;;;;;;;12.35;7.53;;;;;;;;;;10346136;28;20736;-31
2021/07/09 23:20:42;;;;;;;12.77;7.82;;;;;;;;;;10349765;28;20057;-31
2021/07/09 23:25:45;;;;;;;12.93;8.23;;;;;;;;;;10349165;28;20048;-30
2021/07/09 23:30:49;;;;;;;14.55;7.90;;;;;;;;;;10349023;28;20062;-30
2021/07/09 23:35:51;;;;;;;15.82;8.27;;;;;;;;;;10345793;28;20046;-30
2021/07/09 23:40:56;;;;;;;10.90;8.10;;;;;;;;;;10350400;28;20042;-30
2021/07/09 23:46:00;;;;;;;13.65;8.88;;;;;;;;;;10347837;28;20050;-31
2021/07/09 23:51:03;;;;;;;20.65;9.15;;;;;;;;;;10343102;28;20049;-30
2021/07/09 23:56:06;;;;;;;12.80;7.95;;;;;;;;;;10344670;28;20853;-31
